El Moro, Colorado
Current Conditions -  °F | °C
As of 12:54 AM on Thursday 27 Nov 2014 (Local Time) from KTAD Reporting Station
Clear Clear  
Wind Chill: -6°   Ceiling: Unl
Heat Index: -2°   Visibility: 10mi
Dew Point: -5°   Wind: 8mph
Humidity: 78%   Direction: 280°W
Pressure: 30.31"   Gusts: NA
Location:  37.1661°N, 104.486°W
Report Text: KTAD 270754Z AUTO 28007KT 10SM CLR M02/M05 A3031 RMK AO2 SLP267 T10171050
Loading
Personal Weather Stations






























Interactive Weather Map New forecast layout! Learn more

10-Day Weather Forecast

Advertisements
Track Severe Weather on mobile